createdAt,value
2022-12-12T00:00:52.306Z,0
2022-12-12T00:01:46.703Z,0
2022-12-12T00:02:49.003Z,0
2022-12-12T00:03:55.150Z,0
2022-12-12T00:04:49.214Z,0
2022-12-12T00:05:49.831Z,0
2022-12-12T00:06:50.713Z,0
2022-12-12T00:07:51.459Z,0
2022-12-12T00:08:52.660Z,0
2022-12-12T00:09:53.298Z,0
2022-12-12T00:10:53.933Z,0
2022-12-12T00:11:54.922Z,0
2022-12-12T00:12:55.113Z,0
2022-12-12T00:13:55.719Z,0
2022-12-12T00:14:56.641Z,0
2022-12-12T00:15:57.519Z,0
2022-12-12T00:16:57.727Z,0
2022-12-12T00:18:04.640Z,0
2022-12-12T00:18:59.601Z,0
2022-12-12T00:19:59.813Z,0
2022-12-12T00:20:59.690Z,0
2022-12-12T00:22:00.685Z,0
2022-12-12T00:23:02.170Z,0
2022-12-12T00:24:01.850Z,0
2022-12-12T00:25:02.766Z,0
2022-12-12T00:26:03.672Z,0
2022-12-12T00:27:03.865Z,0
2022-12-12T00:28:05.088Z,0
2022-12-12T00:29:05.275Z,0
2022-12-12T00:30:05.480Z,0
2022-12-12T00:31:05.910Z,0
2022-12-12T00:32:06.065Z,0
2022-12-12T00:33:06.417Z,0
2022-12-12T00:34:07.630Z,0
2022-12-12T00:35:08.870Z,0
2022-12-12T00:36:08.478Z,0
2022-12-12T00:37:09.404Z,0
2022-12-12T00:38:10.612Z,0
2022-12-12T00:39:15.243Z,0
2022-12-12T00:40:11.273Z,0
2022-12-12T00:41:11.891Z,0
2022-12-12T00:42:12.905Z,0
2022-12-12T00:43:13.564Z,0
2022-12-12T00:44:15.048Z,0
2022-12-12T00:45:15.630Z,0
2022-12-12T00:46:16.175Z,0
2022-12-12T00:47:15.800Z,0
2022-12-12T00:48:16.986Z,0
2022-12-12T00:49:16.614Z,0
2022-12-12T00:50:17.261Z,0
2022-12-12T00:51:18.161Z,0
2022-12-12T00:52:19.433Z,0
2022-12-12T00:53:19.921Z,0
2022-12-12T00:54:19.269Z,0
2022-12-12T00:55:21.258Z,0
2022-12-12T00:56:20.160Z,0
2022-12-12T00:57:21.375Z,0
2022-12-12T00:58:21.030Z,0
2022-12-12T00:59:22.232Z,0
2022-12-12T01:00:22.245Z,0
2022-12-12T01:01:22.265Z,0
2022-12-12T01:02:27.918Z,0
2022-12-12T01:03:23.978Z,0
2022-12-12T01:04:25.179Z,0
2022-12-12T01:05:26.675Z,0
2022-12-12T01:06:25.559Z,0
2022-12-12T01:07:27.040Z,0
2022-12-12T01:08:27.531Z,0
2022-12-12T01:09:28.044Z,0
2022-12-12T01:10:27.959Z,0
2022-12-12T01:11:29.167Z,0
2022-12-12T01:12:29.856Z,0
2022-12-12T01:13:31.063Z,0
2022-12-12T01:14:31.252Z,0
2022-12-12T01:15:31.797Z,0
2022-12-12T01:16:32.090Z,0
2022-12-12T01:17:31.683Z,0
2022-12-12T01:18:32.309Z,0
2022-12-12T01:19:32.965Z,0
2022-12-12T01:20:34.169Z,0
2022-12-12T01:21:34.056Z,0
2022-12-12T01:22:35.330Z,0
2022-12-12T01:23:35.516Z,0
2022-12-12T01:24:35.404Z,0
2022-12-12T01:25:36.621Z,0
2022-12-12T01:26:36.528Z,0
2022-12-12T01:27:37.735Z,0
2022-12-12T01:28:38.221Z,0
2022-12-12T01:29:38.130Z,0
2022-12-12T01:30:38.441Z,0
2022-12-12T01:31:39.997Z,0
2022-12-12T01:32:39.472Z,0
2022-12-12T01:33:40.090Z,0
2022-12-12T01:34:41.576Z,0
2022-12-12T01:35:41.488Z,0
2022-12-12T01:36:42.951Z,0
2022-12-12T01:37:42.833Z,0
2022-12-12T01:38:43.466Z,0
2022-12-12T01:39:44.111Z,0
2022-12-12T01:40:45.063Z,0
2022-12-12T01:41:45.276Z,0
2022-12-12T01:42:46.596Z,0
2022-12-12T01:43:46.525Z,0
2022-12-12T01:44:46.851Z,0
2022-12-12T01:45:47.185Z,0
2022-12-12T01:46:48.832Z,0
2022-12-12T01:47:48.740Z,0
2022-12-12T01:48:49.390Z,0
2022-12-12T01:49:50.286Z,0
2022-12-12T01:50:51.200Z,0
2022-12-12T01:51:52.106Z,0
2022-12-12T01:52:52.803Z,0
2022-12-12T01:53:52.987Z,0
2022-12-12T01:54:53.524Z,0
2022-12-12T01:55:53.171Z,0
2022-12-12T01:56:53.775Z,0
2022-12-12T01:57:54.691Z,0
2022-12-12T01:58:55.920Z,0
2022-12-12T01:59:55.849Z,0
2022-12-12T02:00:57.267Z,0
2022-12-12T02:01:58.020Z,0
2022-12-12T02:02:58.238Z,0
2022-12-12T02:03:58.854Z,0
2022-12-12T02:04:59.796Z,0
2022-12-12T02:05:59.615Z,0
2022-12-12T02:07:00.790Z,0
2022-12-12T02:08:01.638Z,0
2022-12-12T02:09:01.990Z,0
2022-12-12T02:10:02.902Z,0
2022-12-12T02:11:04.115Z,0
2022-12-12T02:12:05.023Z,0
2022-12-12T02:13:05.734Z,0
2022-12-12T02:14:06.387Z,0
2022-12-12T02:15:07.029Z,0
2022-12-12T02:16:07.927Z,0
2022-12-12T02:17:08.422Z,0
2022-12-12T02:18:18.129Z,0
2022-12-12T02:19:09.040Z,0
2022-12-12T02:20:10.247Z,0
2022-12-12T02:21:10.222Z,0
2022-12-12T02:22:11.386Z,0
2022-12-12T02:23:11.699Z,0
2022-12-12T02:24:12.907Z,0
2022-12-12T02:25:12.793Z,0
2022-12-12T02:26:13.585Z,0
2022-12-12T02:27:14.498Z,0
2022-12-12T02:28:14.705Z,0
2022-12-12T02:29:15.205Z,0
2022-12-12T02:30:15.386Z,0
2022-12-12T02:31:15.607Z,0
2022-12-12T02:32:15.846Z,0
2022-12-12T02:33:15.524Z,0
2022-12-12T02:34:16.443Z,0
2022-12-12T02:35:17.921Z,0
2022-12-12T02:36:18.158Z,0
2022-12-12T02:37:18.337Z,0
2022-12-12T02:38:18.380Z,0
2022-12-12T02:39:20.591Z,0
2022-12-12T02:40:20.500Z,0
2022-12-12T02:41:21.120Z,0
2022-12-12T02:42:22.028Z,0
2022-12-12T02:43:23.360Z,0
2022-12-12T02:44:23.286Z,0
2022-12-12T02:45:25.197Z,0
2022-12-12T02:46:25.314Z,0
2022-12-12T02:47:25.545Z,0
2022-12-12T02:48:26.747Z,0
2022-12-12T02:49:26.626Z,0
2022-12-12T02:50:28.131Z,0
2022-12-12T02:51:28.062Z,0
2022-12-12T02:52:29.254Z,0
2022-12-12T02:53:30.224Z,0
2022-12-12T02:54:30.571Z,0
2022-12-12T02:55:36.230Z,0
2022-12-12T02:56:32.629Z,0
2022-12-12T02:57:32.543Z,0
2022-12-12T02:58:33.488Z,0
2022-12-12T02:59:34.711Z,0
2022-12-12T03:00:34.687Z,0
2022-12-12T03:01:35.353Z,0
2022-12-12T03:02:35.939Z,0
2022-12-12T03:03:36.666Z,0
2022-12-12T03:04:37.851Z,0
2022-12-12T03:05:38.074Z,0
2022-12-12T03:06:44.801Z,0
2022-12-12T03:07:39.971Z,0
2022-12-12T03:08:40.346Z,0
2022-12-12T03:09:40.237Z,0
2022-12-12T03:10:41.144Z,0
2022-12-12T03:11:42.408Z,0
2022-12-12T03:12:42.617Z,0
2022-12-12T03:13:43.915Z,0
2022-12-12T03:14:43.839Z,0
2022-12-12T03:15:44.739Z,0
2022-12-12T03:16:46.622Z,0
2022-12-12T03:17:46.523Z,0
2022-12-12T03:18:46.415Z,0
2022-12-12T03:19:47.327Z,0
2022-12-12T03:20:48.236Z,0
2022-12-12T03:21:49.452Z,0
2022-12-12T03:22:49.050Z,0
2022-12-12T03:23:50.048Z,0
2022-12-12T03:24:50.959Z,0
2022-12-12T03:25:51.459Z,0
2022-12-12T03:26:51.400Z,0
2022-12-12T03:27:51.729Z,0
2022-12-12T03:28:52.643Z,0
2022-12-12T03:29:53.850Z,0
2022-12-12T03:30:55.052Z,0
2022-12-12T03:31:55.525Z,0
2022-12-12T03:32:55.438Z,0
2022-12-12T03:33:56.151Z,0
2022-12-12T03:34:56.184Z,0
2022-12-12T03:35:58.103Z,0
2022-12-12T03:36:58.024Z,0
2022-12-12T03:37:59.207Z,0
2022-12-12T03:38:59.112Z,0
2022-12-12T03:40:00.028Z,0
2022-12-12T03:41:01.233Z,0
2022-12-12T03:42:01.438Z,0
2022-12-12T03:43:01.348Z,0
2022-12-12T03:44:02.360Z,0
2022-12-12T03:45:03.310Z,0
2022-12-12T03:46:03.829Z,0
2022-12-12T03:47:03.719Z,0
2022-12-12T03:48:04.630Z,0
2022-12-12T03:49:05.256Z,0
2022-12-12T03:50:06.144Z,0
2022-12-12T03:51:07.346Z,0
2022-12-12T03:52:07.847Z,0
2022-12-12T03:53:07.449Z,0
2022-12-12T03:54:08.727Z,0
2022-12-12T03:55:08.318Z,0
2022-12-12T03:56:09.504Z,0
2022-12-12T03:57:09.733Z,0
2022-12-12T03:58:09.934Z,0
2022-12-12T03:59:11.165Z,0
2022-12-12T04:00:11.379Z,0
2022-12-12T04:01:11.882Z,0
2022-12-12T04:02:12.394Z,0
2022-12-12T04:03:12.576Z,0
2022-12-12T04:04:12.712Z,0
2022-12-12T04:05:13.890Z,0
2022-12-12T04:06:15.294Z,0
2022-12-12T04:07:15.424Z,0
2022-12-12T04:08:15.696Z,0
2022-12-12T04:09:15.625Z,0
2022-12-12T04:10:16.822Z,0
2022-12-12T04:11:17.295Z,0
2022-12-12T04:12:17.374Z,0
2022-12-12T04:13:17.260Z,0
2022-12-12T04:14:18.031Z,0
2022-12-12T04:15:18.392Z,0
2022-12-12T04:16:18.827Z,0
2022-12-12T04:17:19.055Z,0
2022-12-12T04:18:19.238Z,0
2022-12-12T04:19:19.426Z,0
2022-12-12T04:20:19.481Z,0
2022-12-12T04:21:20.113Z,0
2022-12-12T04:22:32.708Z,0
2022-12-12T04:23:21.596Z,0
2022-12-12T04:24:22.920Z,0
2022-12-12T04:25:23.945Z,0
2022-12-12T04:26:23.857Z,0
2022-12-12T04:27:23.787Z,0
2022-12-12T04:28:24.412Z,0
2022-12-12T04:29:25.910Z,0
2022-12-12T04:30:26.117Z,0
2022-12-12T04:31:26.388Z,0
2022-12-12T04:32:26.998Z,0
2022-12-12T04:33:26.901Z,0
2022-12-12T04:34:27.984Z,0
2022-12-12T04:35:29.015Z,0
2022-12-12T04:36:29.512Z,0
2022-12-12T04:37:29.688Z,0
2022-12-12T04:38:29.643Z,0
2022-12-12T04:39:30.532Z,0
2022-12-12T04:40:31.142Z,0
2022-12-12T04:41:32.047Z,0
2022-12-12T04:42:33.311Z,0
2022-12-12T04:43:32.921Z,0
2022-12-12T04:44:34.237Z,0
2022-12-12T04:45:34.049Z,0
2022-12-12T04:46:34.819Z,0
2022-12-12T04:47:34.861Z,0
2022-12-12T04:48:43.725Z,0
2022-12-12T04:49:37.818Z,0
2022-12-12T04:50:38.008Z,0
2022-12-12T04:51:38.654Z,0
2022-12-12T04:52:39.266Z,0
2022-12-12T04:53:39.941Z,0
2022-12-12T04:54:41.193Z,0
2022-12-12T04:55:41.381Z,0
2022-12-12T04:56:41.276Z,0
2022-12-12T04:57:42.633Z,0
2022-12-12T04:58:43.278Z,0
2022-12-12T04:59:44.474Z,0
2022-12-12T05:00:45.722Z,0
2022-12-12T05:01:51.266Z,0
2022-12-12T05:02:46.660Z,0
2022-12-12T05:03:47.312Z,0
2022-12-12T05:04:47.749Z,0
2022-12-12T05:05:49.227Z,0
2022-12-12T05:06:49.722Z,0
2022-12-12T05:07:55.546Z,0
2022-12-12T05:08:50.202Z,0
2022-12-12T05:09:50.511Z,0
2022-12-12T05:10:52.142Z,0
2022-12-12T05:11:53.328Z,0
2022-12-12T05:12:54.269Z,0
2022-12-12T05:13:54.306Z,0
2022-12-12T05:14:55.736Z,0
2022-12-12T05:16:01.776Z,0
2022-12-12T05:16:58.061Z,0
2022-12-12T05:17:58.627Z,0
2022-12-12T05:18:57.957Z,0
2022-12-12T05:19:58.299Z,0
2022-12-12T05:20:59.210Z,0
2022-12-12T05:21:59.862Z,0
2022-12-12T05:23:01.040Z,0
2022-12-12T05:24:00.980Z,0
2022-12-12T05:25:01.082Z,0
2022-12-12T05:26:02.292Z,0
2022-12-12T05:27:02.473Z,0
2022-12-12T05:28:03.408Z,0
2022-12-12T05:29:08.819Z,0
2022-12-12T05:30:03.741Z,0
2022-12-12T05:31:05.156Z,0
2022-12-12T05:32:05.378Z,0
2022-12-12T05:33:05.284Z,0
2022-12-12T05:34:05.899Z,0
2022-12-12T05:35:06.602Z,0
2022-12-12T05:36:06.488Z,0
2022-12-12T05:37:07.401Z,0
2022-12-12T05:38:08.870Z,0
2022-12-12T05:39:08.082Z,0
2022-12-12T05:40:07.682Z,0
2022-12-12T05:41:08.591Z,0
2022-12-12T05:42:09.524Z,0
2022-12-12T05:43:09.504Z,0
2022-12-12T05:44:10.687Z,0
2022-12-12T05:45:11.233Z,0
2022-12-12T05:46:11.753Z,0
2022-12-12T05:47:11.666Z,0
2022-12-12T05:48:12.865Z,0
2022-12-12T05:49:13.343Z,0
2022-12-12T05:50:13.550Z,0
2022-12-12T05:51:13.163Z,0
2022-12-12T05:52:13.812Z,0
2022-12-12T05:53:15.018Z,0
2022-12-12T05:54:15.082Z,0
2022-12-12T05:55:16.551Z,0
2022-12-12T05:56:16.894Z,0
2022-12-12T05:57:16.509Z,0
2022-12-12T05:58:17.157Z,0
2022-12-12T05:59:18.360Z,0
2022-12-12T06:00:18.993Z,0
2022-12-12T06:01:20.583Z,0
2022-12-12T06:02:20.540Z,0
2022-12-12T06:03:21.795Z,0
2022-12-12T06:04:22.687Z,0
2022-12-12T06:05:23.351Z,0
2022-12-12T06:06:22.963Z,0
2022-12-12T06:07:24.172Z,0
2022-12-12T06:08:30.395Z,0
2022-12-12T06:09:25.373Z,0
2022-12-12T06:10:25.253Z,0
2022-12-12T06:11:26.153Z,0
2022-12-12T06:12:26.773Z,0
2022-12-12T06:13:27.701Z,0
2022-12-12T06:14:28.883Z,0
2022-12-12T06:15:29.354Z,0
2022-12-12T06:16:29.558Z,0
2022-12-12T06:17:33.865Z,0
2022-12-12T06:18:30.045Z,0
2022-12-12T06:19:30.235Z,0
2022-12-12T06:20:30.718Z,0
2022-12-12T06:21:30.904Z,0
2022-12-12T06:22:30.830Z,0
2022-12-12T06:23:31.793Z,0
2022-12-12T06:24:31.727Z,0
2022-12-12T06:25:33.097Z,0
2022-12-12T06:26:32.985Z,0
2022-12-12T06:27:33.978Z,0
2022-12-12T06:28:34.635Z,0
2022-12-12T06:29:35.533Z,0
2022-12-12T06:30:36.776Z,0
2022-12-12T06:31:36.735Z,0
2022-12-12T06:32:37.948Z,0
2022-12-12T06:33:37.284Z,0
2022-12-12T06:34:38.773Z,0
2022-12-12T06:35:39.476Z,0
2022-12-12T06:36:39.379Z,0
2022-12-12T06:37:40.665Z,0
2022-12-12T06:38:40.572Z,0
2022-12-12T06:39:41.562Z,0
2022-12-12T06:40:42.048Z,0
2022-12-12T06:41:41.659Z,0
2022-12-12T06:42:47.852Z,0
2022-12-12T06:43:42.963Z,0
2022-12-12T06:44:43.595Z,0
2022-12-12T06:45:44.875Z,0
2022-12-12T06:46:45.626Z,0
2022-12-12T06:47:45.262Z,0
2022-12-12T06:48:45.881Z,0
2022-12-12T06:49:47.086Z,0
2022-12-12T06:50:47.274Z,0
2022-12-12T06:51:47.457Z,0
2022-12-12T06:52:48.088Z,0
2022-12-12T06:53:49.269Z,0
2022-12-12T06:54:50.199Z,5.63
2022-12-12T06:55:50.463Z,5.63
2022-12-12T06:56:59.432Z,5.63
2022-12-12T06:57:50.764Z,5.63
2022-12-12T06:58:52.301Z,5.63
2022-12-12T06:59:52.209Z,5.63
2022-12-12T07:00:52.713Z,5.63
2022-12-12T07:01:53.160Z,5.63
2022-12-12T07:02:53.102Z,5.63
2022-12-12T07:03:53.751Z,5.63
2022-12-12T07:04:54.951Z,5.63
2022-12-12T07:05:55.294Z,11.25
2022-12-12T07:06:55.779Z,11.25
2022-12-12T07:07:56.385Z,11.25
2022-12-12T07:08:56.602Z,11.25
2022-12-12T07:09:56.525Z,11.25
2022-12-12T07:10:57.428Z,11.25
2022-12-12T07:11:58.355Z,11.25
2022-12-12T07:13:08.452Z,11.25
2022-12-12T07:13:59.084Z,11.25
2022-12-12T07:14:59.988Z,16.88
2022-12-12T07:16:01.335Z,16.88
2022-12-12T07:17:00.977Z,16.88
2022-12-12T07:18:02.170Z,16.88
2022-12-12T07:19:02.354Z,16.88
2022-12-12T07:20:01.958Z,16.88
2022-12-12T07:21:02.873Z,16.88
2022-12-12T07:22:09.260Z,16.88
2022-12-12T07:23:03.846Z,16.88
2022-12-12T07:24:03.767Z,22.5
2022-12-12T07:25:05.018Z,22.5
2022-12-12T07:26:05.583Z,22.5
2022-12-12T07:27:05.504Z,22.5
2022-12-12T07:28:05.846Z,22.5
2022-12-12T07:29:06.897Z,22.5
2022-12-12T07:30:07.090Z,22.5
2022-12-12T07:31:08.038Z,22.5
2022-12-12T07:32:08.002Z,22.5
2022-12-12T07:33:08.922Z,28.13
2022-12-12T07:34:09.577Z,28.13
2022-12-12T07:35:09.888Z,28.13
2022-12-12T07:36:11.308Z,28.13
2022-12-12T07:37:19.174Z,28.13
2022-12-12T07:38:13.108Z,28.13
2022-12-12T07:39:18.836Z,28.13
2022-12-12T07:40:14.543Z,28.13
2022-12-12T07:41:15.726Z,45
2022-12-12T07:42:16.665Z,84.38
2022-12-12T07:43:16.559Z,135
2022-12-12T07:44:18.098Z,213.75
2022-12-12T07:45:23.799Z,196.88
2022-12-12T07:46:19.801Z,168.75
2022-12-12T07:47:20.097Z,140.63
2022-12-12T07:48:20.354Z,123.75
2022-12-12T07:49:20.283Z,123.75
2022-12-12T07:50:19.885Z,112.5
2022-12-12T07:51:21.090Z,101.25
2022-12-12T07:52:20.994Z,140.63
2022-12-12T07:53:21.959Z,174.38
2022-12-12T07:54:22.597Z,118.13
2022-12-12T07:55:24.216Z,78.75
2022-12-12T07:56:23.932Z,78.75
2022-12-12T07:57:24.855Z,78.75
2022-12-12T07:58:24.777Z,78.75
2022-12-12T07:59:26.518Z,78.75
2022-12-12T08:00:26.715Z,84.38
2022-12-12T08:01:31.682Z,90
2022-12-12T08:02:27.788Z,84.38
2022-12-12T08:03:29.003Z,84.38
2022-12-12T08:04:29.567Z,78.75
2022-12-12T08:05:30.015Z,78.75
2022-12-12T08:06:30.761Z,78.75
2022-12-12T08:07:30.667Z,78.75
2022-12-12T08:08:32.578Z,84.38
2022-12-12T08:09:32.892Z,84.38
2022-12-12T08:10:33.686Z,84.38
2022-12-12T08:11:34.517Z,84.38
2022-12-12T08:12:36.093Z,84.38
2022-12-12T08:13:36.341Z,90
2022-12-12T08:14:36.622Z,84.38
2022-12-12T08:15:36.881Z,101.25
2022-12-12T08:16:38.456Z,101.25
2022-12-12T08:17:38.697Z,90
2022-12-12T08:18:38.647Z,90
2022-12-12T08:19:38.834Z,90
2022-12-12T08:20:39.473Z,90
2022-12-12T08:21:42.615Z,90
2022-12-12T08:22:41.263Z,90
2022-12-12T08:23:41.910Z,90
2022-12-12T08:24:42.832Z,90
2022-12-12T08:25:43.849Z,90
2022-12-12T08:26:43.825Z,90
2022-12-12T08:27:45.332Z,90
2022-12-12T08:28:44.947Z,90
2022-12-12T08:29:45.871Z,118.13
2022-12-12T08:30:47.353Z,95.63
2022-12-12T08:31:47.730Z,101.25
2022-12-12T08:32:47.932Z,118.13
2022-12-12T08:33:48.269Z,118.13
2022-12-12T08:34:49.754Z,106.88
2022-12-12T08:35:49.650Z,95.63
2022-12-12T08:36:50.077Z,101.25
2022-12-12T08:37:51.290Z,106.88
2022-12-12T08:38:51.532Z,123.75
2022-12-12T08:39:55.675Z,101.25
2022-12-12T08:40:51.808Z,101.25
2022-12-12T08:41:53.293Z,101.25
2022-12-12T08:42:53.801Z,101.25
2022-12-12T08:43:53.712Z,101.25
2022-12-12T08:44:54.227Z,112.5
2022-12-12T08:45:54.159Z,168.75
2022-12-12T08:46:54.904Z,185.63
2022-12-12T08:47:55.265Z,140.63
2022-12-12T08:48:56.194Z,129.38
2022-12-12T08:49:56.827Z,118.13
2022-12-12T08:50:58.014Z,118.13
2022-12-12T08:51:58.592Z,123.75
2022-12-12T08:52:58.830Z,135
2022-12-12T08:53:59.090Z,208.13
2022-12-12T08:54:59.295Z,225
2022-12-12T08:56:00.361Z,157.5
2022-12-12T08:57:00.345Z,174.38
2022-12-12T08:58:01.603Z,135
2022-12-12T08:59:02.853Z,123.75
2022-12-12T09:00:03.376Z,123.75
2022-12-12T09:01:03.374Z,123.75
2022-12-12T09:02:05.627Z,129.38
2022-12-12T09:03:05.934Z,129.38
2022-12-12T09:04:06.224Z,146.25
2022-12-12T09:05:06.415Z,174.38
2022-12-12T09:06:06.621Z,174.38
2022-12-12T09:07:13.453Z,146.25
2022-12-12T09:08:07.492Z,129.38
2022-12-12T09:09:08.430Z,135
2022-12-12T09:10:08.280Z,135
2022-12-12T09:11:08.945Z,135
2022-12-12T09:12:10.439Z,135
2022-12-12T09:13:10.372Z,151.88
2022-12-12T09:14:11.294Z,140.63
2022-12-12T09:15:12.414Z,140.63
2022-12-12T09:16:13.127Z,140.63
2022-12-12T09:17:13.062Z,151.88
2022-12-12T09:18:13.599Z,213.75
2022-12-12T09:19:13.226Z,191.25
2022-12-12T09:20:14.155Z,146.25
2022-12-12T09:21:14.830Z,146.25
2022-12-12T09:22:15.756Z,151.88
2022-12-12T09:23:16.978Z,146.25
2022-12-12T09:24:17.296Z,140.63
2022-12-12T09:25:17.887Z,135
2022-12-12T09:26:18.541Z,151.88
2022-12-12T09:27:18.843Z,146.25
2022-12-12T09:28:20.063Z,140.63
2022-12-12T09:29:20.262Z,163.13
2022-12-12T09:30:21.208Z,163.13
2022-12-12T09:31:21.872Z,264.38
2022-12-12T09:32:29.624Z,309.38
2022-12-12T09:33:22.784Z,483.75
2022-12-12T09:34:23.114Z,607.5
2022-12-12T09:35:23.376Z,731.25
2022-12-12T09:36:23.358Z,568.13
2022-12-12T09:37:23.824Z,433.13
2022-12-12T09:38:30.367Z,478.13
2022-12-12T09:39:25.612Z,225
2022-12-12T09:40:25.524Z,472.5
2022-12-12T09:41:26.479Z,956.25
2022-12-12T09:42:26.390Z,810
2022-12-12T09:43:34.558Z,208.13
2022-12-12T09:44:28.039Z,348.75
2022-12-12T09:45:28.818Z,433.13
2022-12-12T09:46:29.018Z,393.75
2022-12-12T09:47:29.374Z,590.63
2022-12-12T09:48:29.623Z,607.5
2022-12-12T09:49:29.935Z,450
2022-12-12T09:50:30.738Z,478.13
2022-12-12T09:51:31.462Z,483.75
2022-12-12T09:52:41.253Z,495
2022-12-12T09:53:33.585Z,680.63
2022-12-12T09:54:33.838Z,748.13
2022-12-12T09:55:34.517Z,511.88
2022-12-12T09:56:35.781Z,241.88
2022-12-12T09:57:36.170Z,337.5
2022-12-12T09:58:36.252Z,461.25
2022-12-12T09:59:37.505Z,388.13
2022-12-12T10:00:38.402Z,438.75
2022-12-12T10:01:38.310Z,309.38
2022-12-12T10:02:39.683Z,354.38
2022-12-12T10:03:40.207Z,663.75
2022-12-12T10:04:40.128Z,1051.88
2022-12-12T10:05:41.550Z,1327.5
2022-12-12T10:06:56.860Z,1552.5
2022-12-12T10:07:45.493Z,1569.38
2022-12-12T10:08:46.247Z,1434.38
2022-12-12T10:09:46.578Z,1485
2022-12-12T10:10:46.386Z,1305
2022-12-12T10:11:47.956Z,1231.88
2022-12-12T10:12:48.048Z,1175.63
2022-12-12T10:13:48.565Z,1164.38
2022-12-12T10:14:48.214Z,1440
2022-12-12T10:15:49.446Z,1586.25
2022-12-12T10:16:55.814Z,1653.75
2022-12-12T10:17:51.701Z,1378.13
2022-12-12T10:18:51.652Z,1333.13
2022-12-12T10:19:52.062Z,1468.13
2022-12-12T10:20:53.596Z,1434.38
2022-12-12T10:21:53.844Z,1389.38
2022-12-12T10:22:53.900Z,1158.75
2022-12-12T10:23:55.132Z,765
2022-12-12T10:24:55.074Z,714.38
2022-12-12T10:25:55.711Z,905.63
2022-12-12T10:26:56.673Z,916.88
2022-12-12T10:27:57.264Z,725.63
2022-12-12T10:28:57.172Z,776.25
2022-12-12T10:29:58.716Z,686.25
2022-12-12T10:30:58.973Z,517.5
2022-12-12T10:31:59.048Z,866.25
2022-12-12T10:32:59.060Z,1186.88
2022-12-12T10:34:01.601Z,1119.38
2022-12-12T10:35:00.504Z,1051.88
2022-12-12T10:36:00.782Z,1355.63
2022-12-12T10:37:01.794Z,1625.63
2022-12-12T10:38:02.109Z,1676.25
2022-12-12T10:39:02.331Z,1805.63
2022-12-12T10:40:02.264Z,1760.63
2022-12-12T10:41:03.186Z,1771.88
2022-12-12T10:42:03.235Z,1800
2022-12-12T10:43:04.445Z,1603.13
2022-12-12T10:44:04.801Z,1310.63
2022-12-12T10:45:06.156Z,855
2022-12-12T10:46:07.808Z,973.13
2022-12-12T10:47:08.212Z,1198.13
2022-12-12T10:48:08.570Z,1158.75
2022-12-12T10:49:08.263Z,1231.88
2022-12-12T10:50:15.466Z,1456.88
2022-12-12T10:51:09.406Z,1546.88
2022-12-12T10:52:09.771Z,1659.38
2022-12-12T10:53:11.276Z,1749.38
2022-12-12T10:54:11.175Z,1406.25
2022-12-12T10:55:12.582Z,832.5
2022-12-12T10:56:13.190Z,956.25
2022-12-12T10:57:19.767Z,1001.25
2022-12-12T10:58:13.972Z,793.13
2022-12-12T10:59:14.348Z,759.38
2022-12-12T11:00:15.260Z,708.75
2022-12-12T11:01:16.996Z,523.13
2022-12-12T11:02:27.604Z,365.63
2022-12-12T11:03:18.198Z,365.63
2022-12-12T11:04:18.218Z,298.13
2022-12-12T11:05:18.416Z,270
2022-12-12T11:06:19.635Z,315
2022-12-12T11:07:19.533Z,652.5
2022-12-12T11:08:20.651Z,1170
2022-12-12T11:09:22.692Z,1490.63
2022-12-12T11:10:22.417Z,1423.13
2022-12-12T11:11:22.630Z,1507.5
2022-12-12T11:12:22.862Z,1625.63
2022-12-12T11:13:23.095Z,1215
2022-12-12T11:14:23.024Z,973.13
2022-12-12T11:15:24.960Z,826.88
2022-12-12T11:16:30.281Z,405
2022-12-12T11:17:24.933Z,568.13
2022-12-12T11:18:26.258Z,871.88
2022-12-12T11:19:26.502Z,1158.75
2022-12-12T11:20:27.737Z,1276.88
2022-12-12T11:21:28.235Z,1310.63
2022-12-12T11:22:28.144Z,1395
2022-12-12T11:23:35.042Z,1366.88
2022-12-12T11:24:30.020Z,1400.63
2022-12-12T11:25:30.855Z,826.88
2022-12-12T11:26:30.792Z,286.88
2022-12-12T11:27:32.027Z,270
2022-12-12T11:28:32.427Z,264.38
2022-12-12T11:29:33.060Z,264.38
2022-12-12T11:30:34.287Z,466.88
2022-12-12T11:31:34.396Z,1175.63
2022-12-12T11:32:34.367Z,1327.5
2022-12-12T11:33:35.311Z,967.5
2022-12-12T11:34:35.519Z,545.63
2022-12-12T11:35:35.715Z,264.38
2022-12-12T11:36:36.648Z,258.75
2022-12-12T11:37:36.862Z,253.13
2022-12-12T11:38:37.861Z,320.63
2022-12-12T11:39:38.384Z,675
2022-12-12T11:40:38.336Z,916.88
2022-12-12T11:41:38.833Z,826.88
2022-12-12T11:42:39.369Z,461.25
2022-12-12T11:43:39.557Z,281.25
2022-12-12T11:44:39.875Z,798.75
2022-12-12T11:45:40.959Z,1321.88
2022-12-12T11:46:41.199Z,1186.88
2022-12-12T11:47:41.449Z,900
2022-12-12T11:48:41.767Z,601.88
2022-12-12T11:49:42.000Z,331.88
2022-12-12T11:50:42.627Z,489.38
2022-12-12T11:51:43.562Z,866.25
2022-12-12T11:52:45.057Z,1063.13
2022-12-12T11:53:45.272Z,973.13
2022-12-12T11:54:45.771Z,573.75
2022-12-12T11:55:46.009Z,292.5
2022-12-12T11:56:46.505Z,601.88
2022-12-12T11:57:46.459Z,883.13
2022-12-12T11:58:47.474Z,905.63
2022-12-12T11:59:47.393Z,911.25
2022-12-12T12:00:48.896Z,1001.25
2022-12-12T12:01:48.859Z,1085.63
2022-12-12T12:02:48.872Z,1006.88
2022-12-12T12:03:50.034Z,1001.25
2022-12-12T12:04:58.190Z,765
2022-12-12T12:05:50.566Z,613.13
2022-12-12T12:06:52.165Z,495
2022-12-12T12:07:52.571Z,438.75
2022-12-12T12:08:53.254Z,776.25
2022-12-12T12:09:54.224Z,1057.5
2022-12-12T12:10:54.448Z,922.5
2022-12-12T12:11:54.775Z,675
2022-12-12T12:12:54.411Z,528.75
2022-12-12T12:13:55.607Z,416.25
2022-12-12T12:14:56.549Z,253.13
2022-12-12T12:15:57.827Z,241.88
2022-12-12T12:16:58.676Z,253.13
2022-12-12T12:17:58.642Z,489.38
2022-12-12T12:18:59.367Z,708.75
2022-12-12T12:20:00.681Z,562.5
2022-12-12T12:21:00.900Z,416.25
2022-12-12T12:22:01.118Z,438.75
2022-12-12T12:23:01.648Z,489.38
2022-12-12T12:24:06.685Z,399.38
2022-12-12T12:25:02.902Z,298.13
2022-12-12T12:26:03.428Z,376.88
2022-12-12T12:27:03.479Z,326.25
2022-12-12T12:28:03.708Z,270
2022-12-12T12:29:04.050Z,405
2022-12-12T12:30:04.405Z,562.5
2022-12-12T12:31:05.849Z,545.63
2022-12-12T12:32:06.380Z,540
2022-12-12T12:33:06.593Z,618.75
2022-12-12T12:34:07.125Z,618.75
2022-12-12T12:35:06.803Z,540
2022-12-12T12:36:08.015Z,466.88
2022-12-12T12:37:08.239Z,365.63
2022-12-12T12:38:08.174Z,343.13
2022-12-12T12:39:09.211Z,337.5
2022-12-12T12:40:09.861Z,264.38
2022-12-12T12:41:11.102Z,230.63
2022-12-12T12:42:11.364Z,219.38
2022-12-12T12:43:11.607Z,225
2022-12-12T12:44:11.227Z,219.38
2022-12-12T12:45:12.993Z,219.38
2022-12-12T12:46:13.438Z,219.38
2022-12-12T12:47:13.396Z,219.38
2022-12-12T12:48:21.559Z,230.63
2022-12-12T12:49:14.889Z,230.63
2022-12-12T12:50:15.676Z,236.25
2022-12-12T12:51:16.141Z,247.5
2022-12-12T12:52:16.343Z,275.63
2022-12-12T12:53:16.996Z,343.13
2022-12-12T12:54:18.206Z,348.75
2022-12-12T12:55:19.551Z,281.25
2022-12-12T12:56:23.671Z,230.63
2022-12-12T12:57:20.041Z,230.63
2022-12-12T12:58:19.971Z,236.25
2022-12-12T12:59:21.251Z,219.38
2022-12-12T13:00:22.172Z,213.75
2022-12-12T13:01:22.429Z,225
2022-12-12T13:02:30.691Z,292.5
2022-12-12T13:03:23.837Z,360
2022-12-12T13:04:24.779Z,416.25
2022-12-12T13:05:25.015Z,360
2022-12-12T13:06:24.930Z,264.38
2022-12-12T13:07:25.571Z,225
2022-12-12T13:08:26.727Z,270
2022-12-12T13:09:26.803Z,337.5
2022-12-12T13:10:28.869Z,360
2022-12-12T13:11:28.817Z,320.63
2022-12-12T13:12:30.047Z,292.5
2022-12-12T13:13:29.745Z,253.13
2022-12-12T13:14:35.662Z,213.75
2022-12-12T13:15:31.148Z,213.75
2022-12-12T13:16:32.544Z,219.38
2022-12-12T13:17:33.076Z,202.5
2022-12-12T13:18:46.144Z,196.88
2022-12-12T13:19:34.229Z,196.88
2022-12-12T13:20:36.853Z,196.88
2022-12-12T13:21:35.758Z,196.88
2022-12-12T13:22:36.699Z,191.25
2022-12-12T13:23:37.104Z,191.25
2022-12-12T13:24:38.152Z,196.88
2022-12-12T13:25:38.081Z,241.88
2022-12-12T13:26:39.595Z,320.63
2022-12-12T13:27:39.238Z,365.63
2022-12-12T13:28:40.170Z,348.75
2022-12-12T13:29:41.767Z,320.63
2022-12-12T13:30:41.570Z,241.88
2022-12-12T13:31:42.955Z,196.88
2022-12-12T13:32:42.893Z,236.25
2022-12-12T13:33:44.123Z,315
2022-12-12T13:34:44.763Z,354.38
2022-12-12T13:35:45.726Z,315
2022-12-12T13:36:46.951Z,292.5
2022-12-12T13:37:46.468Z,286.88
2022-12-12T13:38:46.707Z,292.5
2022-12-12T13:39:47.017Z,292.5
2022-12-12T13:40:47.684Z,309.38
2022-12-12T13:41:49.044Z,320.63
2022-12-12T13:42:49.247Z,309.38
2022-12-12T13:43:49.280Z,286.88
2022-12-12T13:44:50.509Z,281.25
2022-12-12T13:45:50.431Z,286.88
2022-12-12T13:46:51.584Z,320.63
2022-12-12T13:47:51.565Z,320.63
2022-12-12T13:48:58.336Z,320.63